Montrose Heights, Virginia
Current Conditions -  °F | °C
As of 12:54 PM on Friday 24 Oct 2014 (Local Time) from KRIC Reporting Station
Broken Clouds Broken Clouds  
Wind Chill: 67°   Ceiling: 25000
Heat Index: 67°   Visibility: 10mi
Dew Point: 42°   Wind: 10mph
Humidity: 40%   Direction: 320°NW
Pressure: 29.98"   Gusts: NA
Location:  37.4458°N, 77.3237°W
Report Text: KRIC 241654Z 32009KT 10SM FEW180 BKN250 19/06 A2998 RMK AO2 SLP155 T01940056
Loading
Personal Weather Stations






























Interactive Weather Map
Tropical Storm Tracking
New forecast layout! Learn more

10-Day Weather Forecast

Advertisements
Track Severe Weather on mobile